SARP/PSS METAR and TAF weather

Enter ICAO airport designator
Station Type Date Time Source
SARP METAR 2019/02/17 15:00 UTC NOAA

SARP 171500Z 05007KT 9999 SCT035 29/20 Q1012


Station Type Date Time Source
SARP Decoded METAR 2019/02/17 15:00 UTC NOAA

Posadas Aero., Argentina (SARP) 27-22S 055-58W 133M
Feb 17, 2019 - 10:00 AM EST / 2019.02.17 1500 UTC
Wind: from the NE (050 degrees) at 8 MPH (7 KT):0
Visibility: greater than 7 mile(s):0
Sky conditions: partly cloudy
Temperature: 84 F (29 C)
Dew Point: 68 F (20 C)
Relative Humidity: 58%
Pressure (altimeter): 29.88 in. Hg (1012 hPa)
ob: SARP 171500Z 05007KT 9999 SCT035 29/20 Q1012
cycle: 15

Station Type Date Time Source
SARP TAF 2019/02/17 12:03 UTC NOAA

TAF SARP 171100Z 1712/1812 11005KT CAVOK TX31/1718Z TN22/1809Z PROB30 1715/1721 SCT025 FEW045TCU
BECMG 1809/1811 4000 BR SCT010


Example: see airport list